createdAt,value
2022-11-29T00:01:03.771Z,81.88
2022-11-29T00:03:30.953Z,87.00
2022-11-29T00:06:03.934Z,91.63
2022-11-29T00:08:30.631Z,92.53
2022-11-29T00:10:57.215Z,90.00
2022-11-29T00:13:23.772Z,88.65
2022-11-29T00:15:50.355Z,95.05
2022-11-29T00:18:16.972Z,92.63
2022-11-29T00:20:43.536Z,88.88
2022-11-29T00:23:10.179Z,96.18
2022-11-29T00:25:38.580Z,86.85
2022-11-29T00:28:05.228Z,88.80
2022-11-29T00:30:31.967Z,93.07
2022-11-29T00:32:58.599Z,92.30
2022-11-29T00:35:25.872Z,96.90
2022-11-29T00:37:52.477Z,96.60
2022-11-29T00:40:19.113Z,103.25
2022-11-29T00:42:45.736Z,102.88
2022-11-29T00:45:12.328Z,93.60
2022-11-29T00:47:39.005Z,98.53
2022-11-29T00:50:07.225Z,109.18
2022-11-29T00:52:33.891Z,101.82
2022-11-29T00:55:00.644Z,105.25
2022-11-29T00:57:27.459Z,96.40
2022-11-29T00:59:54.023Z,96.22
2022-11-29T01:02:20.749Z,95.20
2022-11-29T01:04:47.530Z,101.28
2022-11-29T01:07:14.376Z,108.97
2022-11-29T01:09:41.152Z,103.05
2022-11-29T01:12:07.827Z,98.85
2022-11-29T01:14:34.497Z,101.70
2022-11-29T01:17:01.169Z,107.80
2022-11-29T01:19:27.776Z,108.75
2022-11-29T01:21:54.401Z,101.95
2022-11-29T01:24:22.375Z,110.07
2022-11-29T01:26:49.010Z,106.95
2022-11-29T01:29:15.643Z,105.28
2022-11-29T01:31:42.309Z,109.43
2022-11-29T01:34:08.911Z,103.70
2022-11-29T01:36:35.983Z,103.55
2022-11-29T01:39:05.468Z,104.50
2022-11-29T01:41:34.649Z,104.40
2022-11-29T01:44:05.875Z,101.28
2022-11-29T01:46:35.325Z,108.30
2022-11-29T01:49:09.819Z,100.68
2022-11-29T01:51:42.075Z,101.20
2022-11-29T01:54:10.967Z,104.40
2022-11-29T01:56:38.604Z,96.30
2022-11-29T01:59:11.301Z,100.28
2022-11-29T02:01:38.518Z,93.18
2022-11-29T02:04:06.922Z,98.97
2022-11-29T02:06:34.817Z,100.13
2022-11-29T02:09:01.825Z,94.95
2022-11-29T02:11:47.905Z,96.18
2022-11-29T02:15:06.862Z,89.43
2022-11-29T02:18:29.504Z,93.60
2022-11-29T02:21:22.619Z,88.55
2022-11-29T02:23:54.815Z,104.43
2022-11-29T02:27:15.108Z,90.65
2022-11-29T02:30:06.340Z,88.00
2022-11-29T02:33:06.549Z,97.00
2022-11-29T02:35:54.618Z,89.82
2022-11-29T02:38:46.991Z,98.50
2022-11-29T02:41:51.120Z,97.30
2022-11-29T02:44:43.845Z,96.75
2022-11-29T02:47:29.600Z,99.28
2022-11-29T02:50:18.713Z,98.03
2022-11-29T02:52:59.749Z,95.50
2022-11-29T02:55:40.534Z,96.85
2022-11-29T02:58:34.969Z,90.93
2022-11-29T03:01:23.388Z,92.22
2022-11-29T03:03:54.012Z,100.60
2022-11-29T03:07:04.585Z,95.63
2022-11-29T03:10:00.234Z,91.18
2022-11-29T03:12:44.623Z,99.40
2022-11-29T03:15:17.218Z,91.53
2022-11-29T03:18:09.377Z,89.20
2022-11-29T03:20:51.855Z,92.53
2022-11-29T03:23:33.815Z,106.82
2022-11-29T03:26:25.847Z,98.93
2022-11-29T03:29:18.932Z,100.68
2022-11-29T03:31:56.966Z,99.40
2022-11-29T03:34:29.393Z,96.50
2022-11-29T03:37:18.893Z,109.50
2022-11-29T03:40:02.173Z,106.47
2022-11-29T03:45:19.190Z,97.80
2022-11-29T03:47:59.607Z,95.22
2022-11-29T03:50:33.673Z,103.93
2022-11-29T03:53:13.774Z,100.95
2022-11-29T03:55:54.041Z,93.15
2022-11-29T03:58:35.057Z,106.85
2022-11-29T04:01:15.893Z,91.25
2022-11-29T04:03:58.900Z,99.05
2022-11-29T04:07:00.687Z,117.75
2022-11-29T04:09:33.412Z,103.63
2022-11-29T04:12:44.445Z,109.47
2022-11-29T04:15:48.796Z,99.47
2022-11-29T04:18:21.449Z,104.40
2022-11-29T04:21:03.061Z,103.43
2022-11-29T04:24:06.981Z,104.40
2022-11-29T04:26:47.451Z,97.25
2022-11-29T04:29:35.601Z,96.60
2022-11-29T04:32:08.072Z,97.93
2022-11-29T04:34:42.328Z,106.85
2022-11-29T04:37:27.329Z,97.18
2022-11-29T04:40:50.810Z,91.97
2022-11-29T04:43:27.488Z,87.18
2022-11-29T04:46:18.710Z,98.80
2022-11-29T04:49:07.568Z,90.88
2022-11-29T04:52:06.085Z,92.43
2022-11-29T04:54:56.702Z,95.05
2022-11-29T04:57:44.351Z,112.00
2022-11-29T05:00:15.632Z,104.15
2022-11-29T05:02:57.083Z,107.70
2022-11-29T05:05:35.039Z,107.43
2022-11-29T05:08:15.835Z,110.05
2022-11-29T05:10:52.465Z,101.40
2022-11-29T05:13:31.311Z,103.88
2022-11-29T05:16:05.250Z,105.80
2022-11-29T05:18:56.344Z,122.53
2022-11-29T05:21:31.974Z,108.25
2022-11-29T05:24:17.384Z,107.47
2022-11-29T05:26:55.197Z,113.63
2022-11-29T05:29:30.736Z,100.38
2022-11-29T05:32:09.716Z,95.10
2022-11-29T05:34:55.123Z,105.50
2022-11-29T05:37:27.984Z,103.18
2022-11-29T05:40:13.737Z,110.25
2022-11-29T05:43:16.600Z,99.85
2022-11-29T05:45:56.395Z,90.20
2022-11-29T05:48:34.712Z,92.28
2022-11-29T05:51:19.853Z,84.15
2022-11-29T05:54:13.752Z,80.85
2022-11-29T05:56:55.524Z,89.78
2022-11-29T05:59:27.307Z,83.70
2022-11-29T06:02:11.707Z,83.47
2022-11-29T06:04:57.390Z,85.15
2022-11-29T06:07:51.655Z,81.10
2022-11-29T06:10:21.142Z,78.97
2022-11-29T06:13:21.973Z,84.22
2022-11-29T06:15:56.576Z,81.00
2022-11-29T06:18:46.297Z,87.22
2022-11-29T06:21:40.767Z,92.25
2022-11-29T06:24:25.963Z,83.25
2022-11-29T06:27:12.924Z,87.43
2022-11-29T06:29:48.780Z,85.90
2022-11-29T06:32:25.219Z,87.07
2022-11-29T06:35:09.328Z,80.13
2022-11-29T06:37:43.461Z,94.45
2022-11-29T06:40:12.444Z,84.10
2022-11-29T06:42:39.111Z,84.70
2022-11-29T06:45:06.721Z,85.28
2022-11-29T06:47:33.616Z,87.32
2022-11-29T06:50:26.527Z,86.60
2022-11-29T06:53:17.371Z,92.28
2022-11-29T06:55:47.091Z,84.95
2022-11-29T06:58:41.805Z,85.53
2022-11-29T07:01:25.543Z,80.30
2022-11-29T07:04:15.692Z,81.70
2022-11-29T07:06:42.723Z,82.13
2022-11-29T07:09:20.478Z,85.07
2022-11-29T07:11:47.921Z,80.53
2022-11-29T07:14:15.048Z,77.20
2022-11-29T07:16:57.297Z,86.20
2022-11-29T07:19:37.003Z,99.43
2022-11-29T07:22:20.632Z,86.07
2022-11-29T07:25:02.048Z,74.75
2022-11-29T07:27:37.495Z,75.97
2022-11-29T07:30:12.762Z,77.10
2022-11-29T07:33:00.662Z,79.38
2022-11-29T07:35:46.282Z,80.90
2022-11-29T07:38:21.788Z,71.28
2022-11-29T07:41:00.762Z,73.65
2022-11-29T07:43:33.660Z,76.70
2022-11-29T07:46:00.839Z,77.40
2022-11-29T07:48:27.636Z,73.15
2022-11-29T07:50:56.001Z,73.80
2022-11-29T07:53:23.753Z,82.25
2022-11-29T07:55:50.928Z,81.05
2022-11-29T07:58:18.661Z,72.97
2022-11-29T08:00:46.125Z,72.68
2022-11-29T08:03:12.940Z,77.40
2022-11-29T08:05:40.419Z,76.32
2022-11-29T08:08:07.859Z,74.65
2022-11-29T08:10:35.728Z,74.95
2022-11-29T08:13:02.412Z,73.65
2022-11-29T08:15:29.165Z,78.55
2022-11-29T08:17:55.764Z,70.82
2022-11-29T08:20:22.518Z,72.82
2022-11-29T08:22:59.669Z,69.25
2022-11-29T08:25:27.989Z,72.80
2022-11-29T08:27:55.297Z,63.05
2022-11-29T08:30:22.917Z,69.90
2022-11-29T08:32:51.836Z,66.95
2022-11-29T08:35:23.250Z,65.47
2022-11-29T08:37:50.244Z,70.13
2022-11-29T08:40:17.869Z,63.13
2022-11-29T08:42:44.632Z,65.35
2022-11-29T08:45:11.942Z,61.55
2022-11-29T08:47:40.156Z,62.90
2022-11-29T08:50:14.250Z,64.05
2022-11-29T08:53:07.546Z,59.40
2022-11-29T08:58:09.133Z,56.95
2022-11-29T09:00:35.958Z,59.33
2022-11-29T09:03:22.609Z,56.80
2022-11-29T09:05:49.873Z,58.08
2022-11-29T09:08:16.477Z,58.30
2022-11-29T09:10:43.451Z,59.63
2022-11-29T09:13:10.947Z,59.50
2022-11-29T09:15:38.636Z,58.38
2022-11-29T09:18:05.810Z,61.17
2022-11-29T09:20:33.187Z,57.53
2022-11-29T09:23:00.617Z,61.25
2022-11-29T09:25:28.760Z,59.17
2022-11-29T09:27:58.540Z,57.85
2022-11-29T09:30:25.588Z,55.40
2022-11-29T09:32:52.296Z,61.30
2022-11-29T09:35:19.016Z,60.53
2022-11-29T09:37:45.903Z,55.20
2022-11-29T09:40:20.077Z,58.30
2022-11-29T09:42:58.083Z,57.20
2022-11-29T09:45:32.038Z,51.35
2022-11-29T09:48:10.493Z,51.42
2022-11-29T09:50:52.036Z,53.10
2022-11-29T09:53:23.943Z,50.75
2022-11-29T09:56:30.875Z,54.60
2022-11-29T09:59:10.188Z,52.30
2022-11-29T10:01:46.506Z,51.17
2022-11-29T10:04:24.556Z,46.42
2022-11-29T10:07:05.637Z,56.63
2022-11-29T10:09:40.937Z,52.47
2022-11-29T10:12:25.763Z,50.42
2022-11-29T10:14:56.467Z,53.00
2022-11-29T10:17:28.294Z,49.47
2022-11-29T10:20:04.753Z,47.03
2022-11-29T10:22:53.563Z,50.42
2022-11-29T10:25:29.790Z,49.35
2022-11-29T10:27:56.613Z,50.03
2022-11-29T10:30:23.375Z,52.40
2022-11-29T10:33:00.504Z,49.83
2022-11-29T10:35:27.336Z,56.92
2022-11-29T10:38:28.961Z,56.80
2022-11-29T10:40:49.308Z,55.75
2022-11-29T10:43:16.062Z,56.95
2022-11-29T10:45:44.356Z,55.45
2022-11-29T10:48:14.252Z,55.15
2022-11-29T10:50:44.265Z,54.63
2022-11-29T10:53:18.080Z,55.13
2022-11-29T10:55:53.751Z,51.33
2022-11-29T10:58:28.729Z,57.95
2022-11-29T11:01:07.912Z,54.83
2022-11-29T11:03:59.312Z,53.17
2022-11-29T11:06:46.656Z,55.30
2022-11-29T11:09:20.791Z,58.45
2022-11-29T11:12:13.579Z,61.75
2022-11-29T11:14:40.991Z,54.22
2022-11-29T11:17:16.966Z,55.55
2022-11-29T11:19:55.415Z,59.28
2022-11-29T11:22:23.933Z,54.08
2022-11-29T11:25:00.725Z,59.17
2022-11-29T11:27:33.955Z,53.85
2022-11-29T11:30:04.374Z,50.47
2022-11-29T11:32:31.512Z,54.63
2022-11-29T11:35:01.502Z,53.25
2022-11-29T11:37:32.626Z,52.63
2022-11-29T11:40:21.752Z,52.17
2022-11-29T11:42:48.861Z,57.97
2022-11-29T11:45:15.511Z,59.17
2022-11-29T11:47:46.479Z,51.25
2022-11-29T11:50:42.789Z,58.88
2022-11-29T11:53:29.870Z,62.72
2022-11-29T11:56:07.691Z,50.92
2022-11-29T11:58:36.881Z,51.53
2022-11-29T12:01:12.579Z,47.15
2022-11-29T12:03:57.716Z,49.58
2022-11-29T12:06:45.345Z,79.72
2022-11-29T12:09:36.531Z,56.88
2022-11-29T12:12:13.653Z,50.63
2022-11-29T12:14:50.340Z,51.53
2022-11-29T12:17:38.272Z,50.30
2022-11-29T12:20:10.611Z,57.75
2022-11-29T12:23:18.400Z,55.95
2022-11-29T12:25:53.513Z,54.00
2022-11-29T12:28:22.346Z,47.22
2022-11-29T12:30:58.258Z,55.70
2022-11-29T12:33:31.572Z,48.53
2022-11-29T12:36:11.879Z,53.80
2022-11-29T12:38:47.940Z,54.47
2022-11-29T12:41:39.334Z,55.83
2022-11-29T12:44:33.564Z,46.40
2022-11-29T12:47:35.048Z,53.70
2022-11-29T12:50:24.650Z,50.85
2022-11-29T12:53:13.147Z,53.75
2022-11-29T12:56:07.449Z,55.55
2022-11-29T12:59:07.080Z,66.78
2022-11-29T13:01:55.508Z,51.28
2022-11-29T13:04:40.947Z,52.47
2022-11-29T13:07:19.019Z,51.88
2022-11-29T13:10:36.211Z,52.35
2022-11-29T13:13:43.239Z,49.15
2022-11-29T13:16:47.370Z,62.53
2022-11-29T13:19:19.783Z,54.13
2022-11-29T13:21:56.953Z,63.80
2022-11-29T13:24:50.807Z,56.70
2022-11-29T13:27:27.367Z,50.75
2022-11-29T13:29:56.104Z,55.20
2022-11-29T13:32:35.972Z,57.60
2022-11-29T13:35:27.618Z,53.47
2022-11-29T13:38:01.283Z,52.63
2022-11-29T13:40:50.112Z,51.72
2022-11-29T13:43:45.758Z,54.60
2022-11-29T13:46:37.503Z,43.65
2022-11-29T13:49:04.165Z,49.78
2022-11-29T13:51:34.357Z,48.72
2022-11-29T13:54:26.898Z,49.83
2022-11-29T13:57:07.980Z,44.50
2022-11-29T13:59:41.585Z,50.30
2022-11-29T14:02:28.438Z,48.47
2022-11-29T14:04:55.280Z,39.30
2022-11-29T14:07:22.069Z,37.22
2022-11-29T14:10:17.118Z,41.05
2022-11-29T14:12:50.746Z,39.92
2022-11-29T14:15:26.725Z,37.60
2022-11-29T14:18:08.175Z,37.45
2022-11-29T14:20:43.980Z,39.22
2022-11-29T14:23:16.608Z,38.58
2022-11-29T14:25:58.759Z,38.03
2022-11-29T14:28:33.832Z,38.85
2022-11-29T14:31:03.692Z,36.13
2022-11-29T14:34:12.431Z,31.20
2022-11-29T14:36:52.184Z,36.35
2022-11-29T14:39:47.177Z,33.95
2022-11-29T14:42:20.279Z,35.63
2022-11-29T14:44:49.531Z,35.20
2022-11-29T14:47:26.854Z,40.03
2022-11-29T14:49:56.874Z,41.50
2022-11-29T14:52:29.510Z,40.08
2022-11-29T14:55:03.365Z,37.53
2022-11-29T14:57:48.374Z,37.47
2022-11-29T15:00:17.541Z,31.70
2022-11-29T15:02:50.224Z,33.35
2022-11-29T15:05:22.732Z,34.53
2022-11-29T15:08:19.017Z,35.83
2022-11-29T15:10:56.260Z,36.63
2022-11-29T15:13:27.870Z,37.40
2022-11-29T15:16:18.993Z,40.20
2022-11-29T15:19:17.097Z,39.88
2022-11-29T15:21:43.717Z,36.67
2022-11-29T15:24:14.397Z,36.53
2022-11-29T15:27:02.045Z,34.38
2022-11-29T15:29:30.933Z,33.05
2022-11-29T15:32:01.223Z,33.05
2022-11-29T15:34:37.433Z,34.28
2022-11-29T15:37:04.297Z,31.42
2022-11-29T15:39:36.087Z,33.70
2022-11-29T15:42:18.535Z,31.27
2022-11-29T15:44:49.304Z,34.40
2022-11-29T15:47:27.084Z,37.65
2022-11-29T15:49:54.314Z,32.80
2022-11-29T15:52:36.807Z,33.65
2022-11-29T15:55:10.125Z,34.40
2022-11-29T15:57:43.844Z,31.80
2022-11-29T16:00:20.396Z,34.05
2022-11-29T16:02:59.753Z,35.60
2022-11-29T16:05:33.821Z,33.47
2022-11-29T16:08:17.832Z,35.50
2022-11-29T16:10:49.378Z,37.88
2022-11-29T16:13:25.253Z,36.45
2022-11-29T16:16:19.490Z,32.88
2022-11-29T16:18:47.990Z,35.78
2022-11-29T16:21:27.943Z,36.47
2022-11-29T16:23:55.798Z,39.15
2022-11-29T16:26:29.788Z,38.70
2022-11-29T16:28:58.184Z,39.92
2022-11-29T16:31:33.500Z,39.35
2022-11-29T16:34:08.798Z,41.75
2022-11-29T16:36:36.558Z,37.95
2022-11-29T16:39:17.110Z,41.88
2022-11-29T16:41:44.093Z,41.72
2022-11-29T16:44:39.943Z,52.20
2022-11-29T16:47:20.283Z,43.38
2022-11-29T16:50:13.624Z,45.28
2022-11-29T16:52:40.537Z,49.42
2022-11-29T16:55:07.747Z,46.10
2022-11-29T16:57:35.385Z,43.13
2022-11-29T17:00:02.327Z,40.15
2022-11-29T17:02:30.155Z,36.95
2022-11-29T17:04:58.515Z,35.35
2022-11-29T17:07:32.377Z,42.88
2022-11-29T17:09:59.907Z,38.65
2022-11-29T17:12:26.570Z,40.72
2022-11-29T17:14:53.179Z,39.78
2022-11-29T17:17:20.092Z,38.70
2022-11-29T17:19:46.793Z,40.05
2022-11-29T17:22:13.509Z,40.72
2022-11-29T17:24:44.909Z,43.03
2022-11-29T17:27:14.553Z,40.92
2022-11-29T17:29:41.181Z,42.08
2022-11-29T17:32:08.043Z,39.80
2022-11-29T17:34:35.196Z,46.55
2022-11-29T17:37:01.960Z,43.83
2022-11-29T17:39:28.679Z,41.67
2022-11-29T17:41:55.241Z,49.72
2022-11-29T17:44:21.849Z,44.97
2022-11-29T17:46:48.672Z,45.40
2022-11-29T17:49:15.271Z,47.47
2022-11-29T17:51:57.461Z,45.83
2022-11-29T17:54:24.198Z,45.15
2022-11-29T17:56:51.233Z,40.88
2022-11-29T17:59:18.336Z,43.30
2022-11-29T18:01:47.303Z,40.70
2022-11-29T18:04:14.230Z,45.35
2022-11-29T18:06:41.652Z,41.92
2022-11-29T18:09:10.982Z,44.45
2022-11-29T18:11:48.481Z,41.53
2022-11-29T18:14:23.068Z,36.10
2022-11-29T18:16:50.304Z,41.95
2022-11-29T18:19:19.422Z,38.03
2022-11-29T18:21:46.744Z,40.53
2022-11-29T18:24:13.934Z,38.78
2022-11-29T18:26:41.284Z,39.55
2022-11-29T18:29:09.007Z,37.63
2022-11-29T18:31:38.669Z,36.05
2022-11-29T18:34:09.571Z,39.13
2022-11-29T18:36:39.604Z,36.75
2022-11-29T18:39:10.061Z,38.78
2022-11-29T18:41:38.047Z,38.17
2022-11-29T18:44:10.323Z,38.58
2022-11-29T18:46:39.308Z,37.35
2022-11-29T18:49:08.633Z,42.20
2022-11-29T18:51:37.206Z,37.25
2022-11-29T18:54:05.202Z,37.25
2022-11-29T18:56:34.447Z,39.90
2022-11-29T18:59:02.973Z,38.55
2022-11-29T19:01:32.483Z,36.67
2022-11-29T19:04:00.642Z,40.92
2022-11-29T19:06:39.421Z,37.95
2022-11-29T19:09:08.810Z,39.33
2022-11-29T19:11:35.490Z,40.10
2022-11-29T19:14:04.532Z,40.80
2022-11-29T19:16:33.923Z,38.50
2022-11-29T19:19:02.071Z,39.58
2022-11-29T19:21:31.899Z,38.35
2022-11-29T19:24:00.596Z,39.58
2022-11-29T19:26:29.780Z,36.15
2022-11-29T19:28:57.243Z,36.30
2022-11-29T19:31:25.244Z,41.40
2022-11-29T19:33:52.806Z,38.25
2022-11-29T19:36:22.955Z,38.58
2022-11-29T19:38:53.821Z,39.25
2022-11-29T19:41:22.873Z,40.00
2022-11-29T19:43:50.805Z,41.92
2022-11-29T19:46:23.370Z,39.65
2022-11-29T19:48:54.421Z,41.25
2022-11-29T19:51:22.468Z,39.08
2022-11-29T19:53:53.157Z,41.45
2022-11-29T19:56:23.113Z,39.53
2022-11-29T19:58:49.944Z,41.95
2022-11-29T20:01:19.496Z,44.13
2022-11-29T20:03:46.334Z,38.22
2022-11-29T20:06:16.298Z,38.67
2022-11-29T20:08:43.489Z,39.25
2022-11-29T20:11:14.125Z,40.90
2022-11-29T20:13:42.778Z,43.80
2022-11-29T20:16:14.712Z,41.60
2022-11-29T20:18:48.922Z,42.27
2022-11-29T20:21:18.883Z,40.08
2022-11-29T20:23:45.846Z,43.67
2022-11-29T20:26:18.161Z,42.28
2022-11-29T20:28:46.433Z,40.30
2022-11-29T20:31:17.700Z,42.08
2022-11-29T20:33:46.676Z,41.42
2022-11-29T20:36:36.282Z,43.08
2022-11-29T20:39:32.067Z,46.60
2022-11-29T20:42:31.530Z,46.50
2022-11-29T20:45:00.732Z,43.42
2022-11-29T20:47:33.256Z,38.63
2022-11-29T20:50:00.075Z,43.40
2022-11-29T20:53:20.891Z,42.78
2022-11-29T20:55:48.611Z,46.47
2022-11-29T20:58:16.028Z,48.55
2022-11-29T21:00:43.062Z,45.88
2022-11-29T21:03:16.240Z,47.95
2022-11-29T21:05:43.402Z,47.55
2022-11-29T21:08:10.173Z,49.20
2022-11-29T21:10:36.963Z,46.38
2022-11-29T21:13:04.149Z,46.05
2022-11-29T21:15:31.221Z,49.35
2022-11-29T21:17:58.157Z,46.00
2022-11-29T21:20:26.908Z,46.78
2022-11-29T21:23:11.588Z,43.63
2022-11-29T21:25:59.204Z,43.85
2022-11-29T21:28:34.345Z,47.47
2022-11-29T21:31:01.190Z,43.13
2022-11-29T21:33:28.023Z,40.40
2022-11-29T21:35:58.044Z,43.10
2022-11-29T21:38:26.805Z,40.45
2022-11-29T21:40:53.383Z,40.45
2022-11-29T21:43:20.820Z,36.17
2022-11-29T21:45:49.390Z,37.58
2022-11-29T21:48:34.372Z,40.30
2022-11-29T21:51:11.342Z,40.45
2022-11-29T21:53:39.053Z,40.75
2022-11-29T21:56:08.146Z,38.55
2022-11-29T21:58:35.854Z,40.03
2022-11-29T22:01:07.310Z,42.58
2022-11-29T22:03:34.420Z,38.20
2022-11-29T22:06:03.449Z,40.08
2022-11-29T22:08:33.636Z,38.15
2022-11-29T22:11:05.708Z,37.97
2022-11-29T22:13:32.540Z,40.17
2022-11-29T22:16:09.632Z,37.90
2022-11-29T22:18:37.116Z,39.25
2022-11-29T22:21:07.186Z,38.15
2022-11-29T22:23:34.282Z,36.75
2022-11-29T22:26:06.065Z,41.13
2022-11-29T22:28:33.621Z,39.60
2022-11-29T22:31:11.141Z,40.33
2022-11-29T22:33:38.585Z,40.35
2022-11-29T22:36:10.341Z,39.70
2022-11-29T22:38:37.727Z,40.63
2022-11-29T22:41:07.084Z,42.00
2022-11-29T22:43:34.675Z,38.47
2022-11-29T22:46:10.031Z,37.60
2022-11-29T22:48:39.190Z,39.22
2022-11-29T22:51:14.814Z,39.35
2022-11-29T22:53:43.307Z,40.38
2022-11-29T22:56:11.769Z,41.90
2022-11-29T22:58:38.372Z,42.20
2022-11-29T23:01:14.122Z,35.17
2022-11-29T23:03:48.110Z,41.15
2022-11-29T23:06:16.937Z,41.63
2022-11-29T23:08:45.197Z,40.83
2022-11-29T23:11:15.333Z,42.63
2022-11-29T23:13:43.399Z,45.05
2022-11-29T23:16:12.944Z,42.67
2022-11-29T23:18:42.177Z,45.35
2022-11-29T23:21:14.148Z,42.72
2022-11-29T23:23:41.160Z,44.03
2022-11-29T23:26:09.443Z,42.50
2022-11-29T23:28:36.254Z,37.42
2022-11-29T23:31:02.821Z,41.70
2022-11-29T23:33:29.435Z,40.80
2022-11-29T23:36:01.223Z,41.67
2022-11-29T23:38:28.209Z,36.47
2022-11-29T23:40:54.793Z,38.75
2022-11-29T23:43:21.915Z,38.85
2022-11-29T23:45:49.190Z,37.75
2022-11-29T23:48:16.147Z,40.03
2022-11-29T23:50:43.673Z,39.22
2022-11-29T23:53:14.635Z,36.92
2022-11-29T23:55:42.174Z,37.63
2022-11-29T23:58:09.905Z,38.72
